sensor_id;sensor_type;location;lat;lon;timestamp;pressure;altitude;pressure_sealevel;temperature;humidity
9257;BME280;4665;51.368;6.782;2023-04-29T00:01:30;101048.34;;;11.22;100.00
9257;BME280;4665;51.368;6.782;2023-04-29T00:03:55;101062.13;;;11.17;100.00
9257;BME280;4665;51.368;6.782;2023-04-29T00:06:21;101042.16;;;11.03;100.00
9257;BME280;4665;51.368;6.782;2023-04-29T00:08:47;101044.88;;;10.93;100.00
9257;BME280;4665;51.368;6.782;2023-04-29T00:11:13;101068.94;;;11.02;100.00
9257;BME280;4665;51.368;6.782;2023-04-29T00:13:38;101048.34;;;10.76;100.00
9257;BME280;4665;51.368;6.782;2023-04-29T00:16:05;101056.34;;;10.76;100.00
9257;BME280;4665;51.368;6.782;2023-04-29T00:18:31;101059.75;;;10.68;100.00
9257;BME280;4665;51.368;6.782;2023-04-29T00:20:57;101064.16;;;10.60;100.00
9257;BME280;4665;51.368;6.782;2023-04-29T00:23:22;101081.13;;;10.59;100.00
9257;BME280;4665;51.368;6.782;2023-04-29T00:25:48;101080.47;;;10.47;100.00
9257;BME280;4665;51.368;6.782;2023-04-29T00:28:14;101063.97;;;10.34;100.00
9257;BME280;4665;51.368;6.782;2023-04-29T00:30:39;101066.34;;;10.37;100.00
9257;BME280;4665;51.368;6.782;2023-04-29T00:33:05;101079.59;;;10.56;100.00
9257;BME280;4665;51.368;6.782;2023-04-29T00:35:30;101094.19;;;10.52;100.00
9257;BME280;4665;51.368;6.782;2023-04-29T00:37:55;101073.63;;;10.35;100.00
9257;BME280;4665;51.368;6.782;2023-04-29T00:40:21;101085.59;;;10.30;100.00
9257;BME280;4665;51.368;6.782;2023-04-29T00:42:46;101106.25;;;10.46;100.00
9257;BME280;4665;51.368;6.782;2023-04-29T00:45:12;101087.38;;;10.40;100.00
9257;BME280;4665;51.368;6.782;2023-04-29T00:47:37;101090.56;;;10.43;100.00
9257;BME280;4665;51.368;6.782;2023-04-29T00:50:06;101106.84;;;10.40;100.00
9257;BME280;4665;51.368;6.782;2023-04-29T00:52:33;101103.94;;;10.34;100.00
9257;BME280;4665;51.368;6.782;2023-04-29T00:54:59;101111.47;;;10.38;100.00
9257;BME280;4665;51.368;6.782;2023-04-29T00:57:25;101094.94;;;10.25;100.00
9257;BME280;4665;51.368;6.782;2023-04-29T00:59:56;101110.38;;;10.31;100.00
9257;BME280;4665;51.368;6.782;2023-04-29T01:02:22;101109.38;;;10.22;100.00
9257;BME280;4665;51.368;6.782;2023-04-29T01:04:47;101107.84;;;10.20;100.00
9257;BME280;4665;51.368;6.782;2023-04-29T01:07:16;101123.00;;;10.29;100.00
9257;BME280;4665;51.368;6.782;2023-04-29T01:12:32;101121.47;;;10.17;100.00
9257;BME280;4665;51.368;6.782;2023-04-29T01:15:05;101128.16;;;10.21;100.00
9257;BME280;4665;51.368;6.782;2023-04-29T01:17:43;101121.03;;;10.11;100.00
9257;BME280;4665;51.368;6.782;2023-04-29T01:20:09;101131.81;;;10.20;100.00
9257;BME280;4665;51.368;6.782;2023-04-29T01:22:35;101114.19;;;10.09;100.00
9257;BME280;4665;51.368;6.782;2023-04-29T01:25:01;101134.50;;;10.10;100.00
9257;BME280;4665;51.368;6.782;2023-04-29T01:30:47;101137.19;;;10.00;100.00
9257;BME280;4665;51.368;6.782;2023-04-29T01:36:44;101149.50;;;10.01;100.00
9257;BME280;4665;51.368;6.782;2023-04-29T01:39:49;101157.63;;;9.90;100.00
9257;BME280;4665;51.368;6.782;2023-04-29T01:42:39;101146.56;;;9.85;100.00
9257;BME280;4665;51.368;6.782;2023-04-29T01:45:10;101160.84;;;9.84;100.00
9257;BME280;4665;51.368;6.782;2023-04-29T01:47:36;101155.94;;;9.79;100.00
9257;BME280;4665;51.368;6.782;2023-04-29T01:50:03;101150.09;;;9.76;100.00
9257;BME280;4665;51.368;6.782;2023-04-29T01:52:28;101153.84;;;9.83;100.00
9257;BME280;4665;51.368;6.782;2023-04-29T01:54:54;101157.47;;;9.72;100.00
9257;BME280;4665;51.368;6.782;2023-04-29T01:57:19;101136.09;;;9.54;100.00
9257;BME280;4665;51.368;6.782;2023-04-29T01:59:45;101145.72;;;9.55;100.00
9257;BME280;4665;51.368;6.782;2023-04-29T02:02:10;101147.69;;;9.53;100.00
9257;BME280;4665;51.368;6.782;2023-04-29T02:04:35;101163.63;;;9.63;100.00
9257;BME280;4665;51.368;6.782;2023-04-29T02:07:01;101173.03;;;9.57;100.00
9257;BME280;4665;51.368;6.782;2023-04-29T02:09:28;101160.28;;;9.51;100.00
9257;BME280;4665;51.368;6.782;2023-04-29T02:11:53;101159.03;;;9.45;100.00
9257;BME280;4665;51.368;6.782;2023-04-29T02:14:18;101171.91;;;9.60;100.00
9257;BME280;4665;51.368;6.782;2023-04-29T02:16:44;101183.66;;;9.57;100.00
9257;BME280;4665;51.368;6.782;2023-04-29T02:19:10;101169.25;;;9.40;100.00
9257;BME280;4665;51.368;6.782;2023-04-29T02:21:35;101187.16;;;9.48;100.00
9257;BME280;4665;51.368;6.782;2023-04-29T02:24:00;101187.16;;;9.48;100.00
9257;BME280;4665;51.368;6.782;2023-04-29T02:26:26;101185.75;;;9.44;100.00
9257;BME280;4665;51.368;6.782;2023-04-29T02:28:52;101191.78;;;9.46;100.00
9257;BME280;4665;51.368;6.782;2023-04-29T02:31:17;101166.41;;;9.32;100.00
9257;BME280;4665;51.368;6.782;2023-04-29T02:33:43;101199.03;;;9.44;100.00
9257;BME280;4665;51.368;6.782;2023-04-29T02:36:08;101199.19;;;9.42;100.00
9257;BME280;4665;51.368;6.782;2023-04-29T02:38:33;101201.28;;;9.39;100.00
9257;BME280;4665;51.368;6.782;2023-04-29T02:40:59;101200.72;;;9.35;100.00
9257;BME280;4665;51.368;6.782;2023-04-29T02:43:24;101207.31;;;9.41;100.00
9257;BME280;4665;51.368;6.782;2023-04-29T02:45:50;101221.72;;;9.48;100.00
9257;BME280;4665;51.368;6.782;2023-04-29T02:48:16;101208.13;;;9.41;100.00
9257;BME280;4665;51.368;6.782;2023-04-29T02:50:42;101215.81;;;9.44;100.00
9257;BME280;4665;51.368;6.782;2023-04-29T02:53:07;101220.63;;;9.51;100.00
9257;BME280;4665;51.368;6.782;2023-04-29T02:55:32;101208.84;;;9.43;100.00
9257;BME280;4665;51.368;6.782;2023-04-29T02:57:58;101221.91;;;9.56;100.00
9257;BME280;4665;51.368;6.782;2023-04-29T03:00:23;101208.97;;;9.42;100.00
9257;BME280;4665;51.368;6.782;2023-04-29T03:02:49;101201.56;;;9.36;100.00
9257;BME280;4665;51.368;6.782;2023-04-29T03:05:14;101218.91;;;9.40;100.00
9257;BME280;4665;51.368;6.782;2023-04-29T03:07:40;101212.91;;;9.38;100.00
9257;BME280;4665;51.368;6.782;2023-04-29T03:10:06;101224.38;;;9.38;100.00
9257;BME280;4665;51.368;6.782;2023-04-29T03:12:31;101211.59;;;9.22;100.00
9257;BME280;4665;51.368;6.782;2023-04-29T03:14:57;101209.34;;;9.27;100.00
9257;BME280;4665;51.368;6.782;2023-04-29T03:17:23;101214.53;;;9.19;100.00
9257;BME280;4665;51.368;6.782;2023-04-29T03:19:48;101234.81;;;9.30;100.00
9257;BME280;4665;51.368;6.782;2023-04-29T03:22:15;101244.09;;;9.36;100.00
9257;BME280;4665;51.368;6.782;2023-04-29T03:24:40;101242.56;;;9.33;100.00
9257;BME280;4665;51.368;6.782;2023-04-29T03:27:06;101243.38;;;9.34;100.00
9257;BME280;4665;51.368;6.782;2023-04-29T03:29:31;101232.03;;;9.22;100.00
9257;BME280;4665;51.368;6.782;2023-04-29T03:31:57;101232.84;;;9.22;100.00
9257;BME280;4665;51.368;6.782;2023-04-29T03:34:22;101251.66;;;9.31;100.00
9257;BME280;4665;51.368;6.782;2023-04-29T03:36:48;101249.66;;;9.33;100.00
9257;BME280;4665;51.368;6.782;2023-04-29T03:39:15;101250.22;;;9.26;100.00
9257;BME280;4665;51.368;6.782;2023-04-29T03:41:40;101233.66;;;9.13;100.00
9257;BME280;4665;51.368;6.782;2023-04-29T03:44:06;101232.25;;;9.09;100.00
9257;BME280;4665;51.368;6.782;2023-04-29T03:46:31;101238.84;;;9.15;100.00
9257;BME280;4665;51.368;6.782;2023-04-29T03:48:56;101251.56;;;9.11;100.00
9257;BME280;4665;51.368;6.782;2023-04-29T03:51:25;101261.22;;;9.12;100.00
9257;BME280;4665;51.368;6.782;2023-04-29T03:53:53;101263.19;;;9.10;100.00
9257;BME280;4665;51.368;6.782;2023-04-29T03:56:18;101264.13;;;9.09;100.00
9257;BME280;4665;51.368;6.782;2023-04-29T03:58:44;101256.56;;;9.04;100.00
9257;BME280;4665;51.368;6.782;2023-04-29T04:01:10;101257.59;;;9.13;100.00
9257;BME280;4665;51.368;6.782;2023-04-29T04:03:36;101268.50;;;9.10;100.00
9257;BME280;4665;51.368;6.782;2023-04-29T04:06:02;101271.41;;;9.07;100.00
9257;BME280;4665;51.368;6.782;2023-04-29T04:08:27;101267.47;;;9.01;100.00
9257;BME280;4665;51.368;6.782;2023-04-29T04:10:52;101280.09;;;9.09;100.00
9257;BME280;4665;51.368;6.782;2023-04-29T04:13:18;101280.63;;;9.03;100.00
9257;BME280;4665;51.368;6.782;2023-04-29T04:15:49;101270.13;;;9.01;100.00
9257;BME280;4665;51.368;6.782;2023-04-29T04:18:15;101275.19;;;9.14;100.00
9257;BME280;4665;51.368;6.782;2023-04-29T04:20:40;101280.34;;;9.06;100.00
9257;BME280;4665;51.368;6.782;2023-04-29T04:23:06;101283.41;;;9.01;100.00
9257;BME280;4665;51.368;6.782;2023-04-29T04:25:31;101296.25;;;8.96;100.00
9257;BME280;4665;51.368;6.782;2023-04-29T04:27:56;101293.72;;;8.95;100.00
9257;BME280;4665;51.368;6.782;2023-04-29T04:30:22;101297.81;;;8.99;100.00
9257;BME280;4665;51.368;6.782;2023-04-29T04:32:48;101299.03;;;8.95;100.00
9257;BME280;4665;51.368;6.782;2023-04-29T04:35:13;101288.91;;;8.89;100.00
9257;BME280;4665;51.368;6.782;2023-04-29T04:37:39;101283.22;;;8.93;100.00
9257;BME280;4665;51.368;6.782;2023-04-29T04:40:05;101299.47;;;9.00;100.00
9257;BME280;4665;51.368;6.782;2023-04-29T04:42:30;101298.72;;;8.88;100.00
9257;BME280;4665;51.368;6.782;2023-04-29T04:44:56;101307.00;;;8.95;100.00
9257;BME280;4665;51.368;6.782;2023-04-29T04:47:21;101300.19;;;9.02;100.00
9257;BME280;4665;51.368;6.782;2023-04-29T04:49:46;101318.06;;;9.00;100.00
9257;BME280;4665;51.368;6.782;2023-04-29T04:52:13;101294.72;;;8.94;100.00
9257;BME280;4665;51.368;6.782;2023-04-29T04:54:39;101295.34;;;8.86;100.00
9257;BME280;4665;51.368;6.782;2023-04-29T04:57:04;101307.22;;;8.82;100.00
9257;BME280;4665;51.368;6.782;2023-04-29T04:59:30;101306.34;;;8.81;100.00
9257;BME280;4665;51.368;6.782;2023-04-29T05:01:55;101333.31;;;8.98;100.00
9257;BME280;4665;51.368;6.782;2023-04-29T05:04:21;101338.78;;;8.96;100.00
9257;BME280;4665;51.368;6.782;2023-04-29T05:06:46;101328.25;;;8.95;100.00
9257;BME280;4665;51.368;6.782;2023-04-29T05:09:12;101330.22;;;8.93;100.00
9257;BME280;4665;51.368;6.782;2023-04-29T05:11:37;101343.25;;;8.96;100.00
9257;BME280;4665;51.368;6.782;2023-04-29T05:14:02;101341.44;;;8.96;100.00
9257;BME280;4665;51.368;6.782;2023-04-29T05:16:28;101350.56;;;9.03;100.00
9257;BME280;4665;51.368;6.782;2023-04-29T05:18:53;101358.66;;;9.02;100.00
9257;BME280;4665;51.368;6.782;2023-04-29T05:21:19;101349.97;;;9.00;100.00
9257;BME280;4665;51.368;6.782;2023-04-29T05:23:44;101355.59;;;9.06;100.00
9257;BME280;4665;51.368;6.782;2023-04-29T05:26:09;101353.34;;;9.02;100.00
9257;BME280;4665;51.368;6.782;2023-04-29T05:28:35;101346.47;;;8.99;100.00
9257;BME280;4665;51.368;6.782;2023-04-29T05:31:00;101361.63;;;9.09;100.00
9257;BME280;4665;51.368;6.782;2023-04-29T05:33:26;101355.88;;;9.03;100.00
9257;BME280;4665;51.368;6.782;2023-04-29T05:35:51;101361.44;;;9.00;100.00
9257;BME280;4665;51.368;6.782;2023-04-29T05:38:16;101365.47;;;8.95;100.00
9257;BME280;4665;51.368;6.782;2023-04-29T05:40:42;101367.63;;;9.01;100.00
9257;BME280;4665;51.368;6.782;2023-04-29T05:43:07;101355.22;;;8.90;100.00
9257;BME280;4665;51.368;6.782;2023-04-29T05:45:32;101367.84;;;8.98;100.00
9257;BME280;4665;51.368;6.782;2023-04-29T05:47:58;101383.56;;;9.01;100.00
9257;BME280;4665;51.368;6.782;2023-04-29T05:50:23;101395.16;;;9.00;100.00
9257;BME280;4665;51.368;6.782;2023-04-29T05:52:49;101360.66;;;8.89;100.00
9257;BME280;4665;51.368;6.782;2023-04-29T05:55:16;101386.94;;;9.03;100.00
9257;BME280;4665;51.368;6.782;2023-04-29T05:57:41;101369.81;;;8.96;100.00
9257;BME280;4665;51.368;6.782;2023-04-29T06:00:07;101381.16;;;8.98;100.00
9257;BME280;4665;51.368;6.782;2023-04-29T06:02:32;101383.25;;;8.94;100.00
9257;BME280;4665;51.368;6.782;2023-04-29T06:04:58;101368.56;;;9.00;100.00
9257;BME280;4665;51.368;6.782;2023-04-29T06:07:23;101395.22;;;9.10;100.00
9257;BME280;4665;51.368;6.782;2023-04-29T06:09:49;101406.66;;;9.21;100.00
9257;BME280;4665;51.368;6.782;2023-04-29T06:12:15;101409.69;;;9.17;100.00
9257;BME280;4665;51.368;6.782;2023-04-29T06:14:40;101410.09;;;9.12;100.00
9257;BME280;4665;51.368;6.782;2023-04-29T06:17:05;101401.06;;;9.03;100.00
9257;BME280;4665;51.368;6.782;2023-04-29T06:19:31;101409.59;;;9.07;100.00
9257;BME280;4665;51.368;6.782;2023-04-29T06:21:57;101411.69;;;9.03;100.00
9257;BME280;4665;51.368;6.782;2023-04-29T06:24:23;101405.94;;;8.98;100.00
9257;BME280;4665;51.368;6.782;2023-04-29T06:26:48;101433.28;;;9.10;100.00
9257;BME280;4665;51.368;6.782;2023-04-29T06:29:14;101434.97;;;9.11;100.00
9257;BME280;4665;51.368;6.782;2023-04-29T06:31:39;101426.94;;;9.01;100.00
9257;BME280;4665;51.368;6.782;2023-04-29T06:34:04;101441.13;;;9.12;100.00
9257;BME280;4665;51.368;6.782;2023-04-29T06:36:30;101437.34;;;9.14;100.00
9257;BME280;4665;51.368;6.782;2023-04-29T06:38:56;101435.56;;;9.15;100.00
9257;BME280;4665;51.368;6.782;2023-04-29T06:41:21;101435.09;;;9.10;100.00
9257;BME280;4665;51.368;6.782;2023-04-29T06:43:47;101430.94;;;8.96;100.00
9257;BME280;4665;51.368;6.782;2023-04-29T06:46:13;101436.19;;;9.07;100.00
9257;BME280;4665;51.368;6.782;2023-04-29T06:48:38;101427.19;;;8.98;100.00
9257;BME280;4665;51.368;6.782;2023-04-29T06:51:03;101446.31;;;9.13;100.00
9257;BME280;4665;51.368;6.782;2023-04-29T06:53:29;101451.63;;;9.13;100.00
9257;BME280;4665;51.368;6.782;2023-04-29T06:55:54;101436.19;;;9.07;100.00
9257;BME280;4665;51.368;6.782;2023-04-29T06:58:20;101436.44;;;9.04;100.00
9257;BME280;4665;51.368;6.782;2023-04-29T07:00:47;101458.81;;;9.22;100.00
9257;BME280;4665;51.368;6.782;2023-04-29T07:03:14;101446.19;;;9.15;100.00
9257;BME280;4665;51.368;6.782;2023-04-29T07:05:40;101464.88;;;9.24;100.00
9257;BME280;4665;51.368;6.782;2023-04-29T07:08:07;101477.72;;;9.19;100.00
9257;BME280;4665;51.368;6.782;2023-04-29T07:10:33;101470.34;;;9.12;100.00
9257;BME280;4665;51.368;6.782;2023-04-29T07:12:58;101481.78;;;9.23;100.00
9257;BME280;4665;51.368;6.782;2023-04-29T07:15:25;101486.53;;;9.20;100.00
9257;BME280;4665;51.368;6.782;2023-04-29T07:17:50;101462.91;;;9.05;100.00
9257;BME280;4665;51.368;6.782;2023-04-29T07:20:16;101485.91;;;9.16;100.00
9257;BME280;4665;51.368;6.782;2023-04-29T07:22:41;101468.34;;;9.04;100.00
9257;BME280;4665;51.368;6.782;2023-04-29T07:25:07;101465.22;;;8.99;100.00
9257;BME280;4665;51.368;6.782;2023-04-29T07:27:33;101491.19;;;9.27;100.00
9257;BME280;4665;51.368;6.782;2023-04-29T07:29:59;101493.41;;;9.22;100.00
9257;BME280;4665;51.368;6.782;2023-04-29T07:32:28;101496.50;;;9.27;100.00
9257;BME280;4665;51.368;6.782;2023-04-29T07:34:55;101505.47;;;9.26;100.00
9257;BME280;4665;51.368;6.782;2023-04-29T07:37:21;101499.22;;;9.16;100.00
9257;BME280;4665;51.368;6.782;2023-04-29T07:39:46;101511.41;;;9.19;100.00
9257;BME280;4665;51.368;6.782;2023-04-29T07:42:12;101513.22;;;9.18;100.00
9257;BME280;4665;51.368;6.782;2023-04-29T07:44:37;101523.03;;;9.18;100.00
9257;BME280;4665;51.368;6.782;2023-04-29T07:47:03;101501.88;;;9.16;100.00
9257;BME280;4665;51.368;6.782;2023-04-29T07:49:29;101507.06;;;9.18;100.00
9257;BME280;4665;51.368;6.782;2023-04-29T07:51:54;101523.09;;;9.27;100.00
9257;BME280;4665;51.368;6.782;2023-04-29T07:54:20;101510.34;;;9.21;100.00
9257;BME280;4665;51.368;6.782;2023-04-29T07:56:46;101517.53;;;9.31;100.00
9257;BME280;4665;51.368;6.782;2023-04-29T07:59:12;101513.81;;;9.22;100.00
9257;BME280;4665;51.368;6.782;2023-04-29T08:01:39;101528.81;;;9.44;100.00
9257;BME280;4665;51.368;6.782;2023-04-29T08:04:05;101513.94;;;9.20;100.00
9257;BME280;4665;51.368;6.782;2023-04-29T08:06:31;101510.72;;;9.17;100.00
9257;BME280;4665;51.368;6.782;2023-04-29T08:08:56;101530.13;;;9.29;100.00
9257;BME280;4665;51.368;6.782;2023-04-29T08:11:22;101531.59;;;9.21;100.00
9257;BME280;4665;51.368;6.782;2023-04-29T08:13:49;101538.31;;;9.25;100.00
9257;BME280;4665;51.368;6.782;2023-04-29T08:16:14;101548.47;;;9.32;100.00
9257;BME280;4665;51.368;6.782;2023-04-29T08:18:40;101538.47;;;9.24;100.00
9257;BME280;4665;51.368;6.782;2023-04-29T08:21:05;101549.44;;;9.31;100.00
9257;BME280;4665;51.368;6.782;2023-04-29T08:23:31;101550.66;;;9.26;100.00
9257;BME280;4665;51.368;6.782;2023-04-29T08:25:57;101556.56;;;9.30;100.00
9257;BME280;4665;51.368;6.782;2023-04-29T08:28:22;101558.97;;;9.33;100.00
9257;BME280;4665;51.368;6.782;2023-04-29T08:30:48;101559.56;;;9.37;100.00
9257;BME280;4665;51.368;6.782;2023-04-29T08:33:14;101549.94;;;9.24;100.00
9257;BME280;4665;51.368;6.782;2023-04-29T08:35:40;101562.47;;;9.34;100.00
9257;BME280;4665;51.368;6.782;2023-04-29T08:38:06;101563.81;;;9.28;100.00
9257;BME280;4665;51.368;6.782;2023-04-29T08:40:43;101566.63;;;9.26;100.00
9257;BME280;4665;51.368;6.782;2023-04-29T08:43:11;101567.91;;;9.32;100.00
9257;BME280;4665;51.368;6.782;2023-04-29T08:45:38;101568.06;;;9.31;100.00
9257;BME280;4665;51.368;6.782;2023-04-29T08:48:05;101550.97;;;9.12;100.00
9257;BME280;4665;51.368;6.782;2023-04-29T08:50:36;101575.78;;;9.34;100.00
9257;BME280;4665;51.368;6.782;2023-04-29T08:53:02;101575.06;;;9.32;100.00
9257;BME280;4665;51.368;6.782;2023-04-29T08:55:28;101581.94;;;9.34;100.00
9257;BME280;4665;51.368;6.782;2023-04-29T08:57:53;101584.72;;;9.33;100.00
9257;BME280;4665;51.368;6.782;2023-04-29T09:00:21;101590.75;;;9.35;100.00
9257;BME280;4665;51.368;6.782;2023-04-29T09:02:50;101580.25;;;9.33;100.00
9257;BME280;4665;51.368;6.782;2023-04-29T09:05:17;101583.75;;;9.34;100.00
9257;BME280;4665;51.368;6.782;2023-04-29T09:07:43;101591.19;;;9.40;100.00
9257;BME280;4665;51.368;6.782;2023-04-29T09:10:09;101597.84;;;9.45;100.00
9257;BME280;4665;51.368;6.782;2023-04-29T09:12:35;101595.56;;;9.41;100.00
9257;BME280;4665;51.368;6.782;2023-04-29T09:15:01;101600.63;;;9.44;100.00
9257;BME280;4665;51.368;6.782;2023-04-29T09:17:46;101598.94;;;9.43;100.00
9257;BME280;4665;51.368;6.782;2023-04-29T09:22:54;101607.66;;;9.45;100.00
9257;BME280;4665;51.368;6.782;2023-04-29T09:25:20;101607.03;;;9.41;100.00
9257;BME280;4665;51.368;6.782;2023-04-29T09:27:45;101613.19;;;9.42;100.00
9257;BME280;4665;51.368;6.782;2023-04-29T09:30:11;101612.34;;;9.41;100.00
9257;BME280;4665;51.368;6.782;2023-04-29T09:32:38;101620.47;;;9.40;100.00
9257;BME280;4665;51.368;6.782;2023-04-29T09:35:38;101628.94;;;9.45;100.00
9257;BME280;4665;51.368;6.782;2023-04-29T09:38:12;101621.06;;;9.43;100.00
9257;BME280;4665;51.368;6.782;2023-04-29T09:40:39;101629.88;;;9.44;100.00
9257;BME280;4665;51.368;6.782;2023-04-29T09:43:17;101620.94;;;9.45;100.00
9257;BME280;4665;51.368;6.782;2023-04-29T09:45:44;101624.44;;;9.45;100.00
9257;BME280;4665;51.368;6.782;2023-04-29T09:48:10;101635.09;;;9.45;100.00
9257;BME280;4665;51.368;6.782;2023-04-29T09:50:39;101630.09;;;9.52;100.00
9257;BME280;4665;51.368;6.782;2023-04-29T09:53:07;101632.03;;;9.50;100.00
9257;BME280;4665;51.368;6.782;2023-04-29T09:55:34;101633.72;;;9.51;100.00
9257;BME280;4665;51.368;6.782;2023-04-29T09:58:00;101625.88;;;9.50;100.00
9257;BME280;4665;51.368;6.782;2023-04-29T10:00:30;101644.59;;;9.59;100.00
9257;BME280;4665;51.368;6.782;2023-04-29T10:02:58;101638.53;;;9.57;100.00
9257;BME280;4665;51.368;6.782;2023-04-29T10:05:27;101645.53;;;9.58;100.00
9257;BME280;4665;51.368;6.782;2023-04-29T10:07:54;101640.72;;;9.63;100.00
9257;BME280;4665;51.368;6.782;2023-04-29T10:10:20;101644.09;;;9.65;100.00
9257;BME280;4665;51.368;6.782;2023-04-29T10:12:47;101651.53;;;9.72;100.00
9257;BME280;4665;51.368;6.782;2023-04-29T10:15:28;101659.13;;;9.76;100.00
9257;BME280;4665;51.368;6.782;2023-04-29T10:18:19;101655.81;;;9.84;100.00
9257;BME280;4665;51.368;6.782;2023-04-29T10:20:46;101660.66;;;9.90;100.00
9257;BME280;4665;51.368;6.782;2023-04-29T10:23:13;101653.09;;;9.95;100.00
9257;BME280;4665;51.368;6.782;2023-04-29T10:25:41;101655.53;;;9.98;100.00
9257;BME280;4665;51.368;6.782;2023-04-29T10:28:11;101664.09;;;10.02;100.00
9257;BME280;4665;51.368;6.782;2023-04-29T10:30:43;101652.34;;;10.04;100.00
9257;BME280;4665;51.368;6.782;2023-04-29T10:33:10;101659.09;;;10.08;100.00
9257;BME280;4665;51.368;6.782;2023-04-29T10:35:36;101658.59;;;10.15;100.00
9257;BME280;4665;51.368;6.782;2023-04-29T10:38:07;101662.41;;;10.22;100.00
9257;BME280;4665;51.368;6.782;2023-04-29T10:40:44;101666.34;;;10.27;100.00
9257;BME280;4665;51.368;6.782;2023-04-29T10:43:13;101654.03;;;10.26;100.00
9257;BME280;4665;51.368;6.782;2023-04-29T10:45:39;101663.59;;;10.29;100.00
9257;BME280;4665;51.368;6.782;2023-04-29T10:48:12;101661.50;;;10.32;100.00
9257;BME280;4665;51.368;6.782;2023-04-29T10:53:17;101656.25;;;10.42;100.00
9257;BME280;4665;51.368;6.782;2023-04-29T10:55:47;101659.47;;;10.46;100.00
9257;BME280;4665;51.368;6.782;2023-04-29T11:01:01;101658.88;;;10.63;100.00
9257;BME280;4665;51.368;6.782;2023-04-29T11:03:49;101659.88;;;10.72;100.00
9257;BME280;4665;51.368;6.782;2023-04-29T11:06:19;101661.63;;;10.83;100.00
9257;BME280;4665;51.368;6.782;2023-04-29T11:08:44;101663.88;;;10.87;100.00
9257;BME280;4665;51.368;6.782;2023-04-29T11:11:12;101661.50;;;10.94;100.00
9257;BME280;4665;51.368;6.782;2023-04-29T11:13:39;101664.50;;;11.01;100.00
9257;BME280;4665;51.368;6.782;2023-04-29T11:16:05;101670.13;;;11.07;100.00
9257;BME280;4665;51.368;6.782;2023-04-29T11:18:32;101657.22;;;11.12;100.00
9257;BME280;4665;51.368;6.782;2023-04-29T11:23:36;101651.59;;;11.25;100.00
9257;BME280;4665;51.368;6.782;2023-04-29T11:26:03;101654.16;;;11.36;100.00
9257;BME280;4665;51.368;6.782;2023-04-29T11:28:30;101656.84;;;11.46;100.00
9257;BME280;4665;51.368;6.782;2023-04-29T11:30:56;101654.75;;;11.50;100.00
9257;BME280;4665;51.368;6.782;2023-04-29T11:33:23;101644.50;;;11.55;100.00
9257;BME280;4665;51.368;6.782;2023-04-29T11:35:48;101660.38;;;11.66;100.00
9257;BME280;4665;51.368;6.782;2023-04-29T11:38:14;101646.03;;;11.67;100.00
9257;BME280;4665;51.368;6.782;2023-04-29T11:40:49;101629.59;;;11.62;100.00
9257;BME280;4665;51.368;6.782;2023-04-29T11:43:18;101648.44;;;11.80;100.00
9257;BME280;4665;51.368;6.782;2023-04-29T11:45:47;101631.16;;;11.74;100.00
9257;BME280;4665;51.368;6.782;2023-04-29T11:48:23;101646.63;;;12.00;100.00
9257;BME280;4665;51.368;6.782;2023-04-29T11:50:52;101650.84;;;12.03;100.00
9257;BME280;4665;51.368;6.782;2023-04-29T11:53:20;101647.16;;;12.04;100.00
9257;BME280;4665;51.368;6.782;2023-04-29T11:55:46;101659.34;;;12.16;100.00
9257;BME280;4665;51.368;6.782;2023-04-29T11:58:14;101661.91;;;12.17;100.00
9257;BME280;4665;51.368;6.782;2023-04-29T12:00:40;101656.03;;;12.14;100.00
9257;BME280;4665;51.368;6.782;2023-04-29T12:03:13;101666.28;;;12.18;100.00
9257;BME280;4665;51.368;6.782;2023-04-29T12:05:44;101660.22;;;12.16;100.00
9257;BME280;4665;51.368;6.782;2023-04-29T12:08:10;101653.59;;;12.20;100.00
9257;BME280;4665;51.368;6.782;2023-04-29T12:10:36;101661.16;;;12.25;100.00
9257;BME280;4665;51.368;6.782;2023-04-29T12:13:02;101649.91;;;12.31;100.00
9257;BME280;4665;51.368;6.782;2023-04-29T12:15:29;101643.34;;;12.26;100.00
9257;BME280;4665;51.368;6.782;2023-04-29T12:17:54;101646.94;;;12.44;100.00
9257;BME280;4665;51.368;6.782;2023-04-29T12:20:20;101646.72;;;12.55;100.00
9257;BME280;4665;51.368;6.782;2023-04-29T12:22:45;101647.56;;;12.66;100.00
9257;BME280;4665;51.368;6.782;2023-04-29T12:25:11;101646.97;;;12.72;100.00
9257;BME280;4665;51.368;6.782;2023-04-29T12:27:39;101643.38;;;12.81;100.00
9257;BME280;4665;51.368;6.782;2023-04-29T12:30:08;101648.00;;;12.89;100.00
9257;BME280;4665;51.368;6.782;2023-04-29T12:32:34;101641.84;;;12.88;100.00
9257;BME280;4665;51.368;6.782;2023-04-29T12:35:00;101649.16;;;12.86;100.00
9257;BME280;4665;51.368;6.782;2023-04-29T12:37:26;101649.75;;;12.80;100.00
9257;BME280;4665;51.368;6.782;2023-04-29T12:39:53;101623.69;;;12.54;100.00
9257;BME280;4665;51.368;6.782;2023-04-29T12:42:19;101635.06;;;12.56;100.00
9257;BME280;4665;51.368;6.782;2023-04-29T12:44:45;101629.59;;;12.48;100.00
9257;BME280;4665;51.368;6.782;2023-04-29T12:47:14;101655.44;;;12.57;100.00
9257;BME280;4665;51.368;6.782;2023-04-29T12:49:41;101644.38;;;12.52;100.00
9257;BME280;4665;51.368;6.782;2023-04-29T12:52:08;101632.56;;;12.45;100.00
9257;BME280;4665;51.368;6.782;2023-04-29T12:54:38;101647.59;;;12.46;100.00
9257;BME280;4665;51.368;6.782;2023-04-29T12:57:08;101656.63;;;12.45;100.00
9257;BME280;4665;51.368;6.782;2023-04-29T12:59:33;101639.09;;;12.33;100.00
9257;BME280;4665;51.368;6.782;2023-04-29T13:01:59;101643.44;;;12.34;100.00
9257;BME280;4665;51.368;6.782;2023-04-29T13:04:24;101640.06;;;12.32;100.00
9257;BME280;4665;51.368;6.782;2023-04-29T13:06:50;101664.50;;;12.37;100.00
9257;BME280;4665;51.368;6.782;2023-04-29T13:09:18;101649.78;;;12.33;100.00
9257;BME280;4665;51.368;6.782;2023-04-29T13:11:43;101656.97;;;12.32;100.00
9257;BME280;4665;51.368;6.782;2023-04-29T13:14:09;101658.91;;;12.40;100.00
9257;BME280;4665;51.368;6.782;2023-04-29T13:16:35;101667.31;;;12.45;100.00
9257;BME280;4665;51.368;6.782;2023-04-29T13:19:01;101673.38;;;12.47;100.00
9257;BME280;4665;51.368;6.782;2023-04-29T13:21:26;101656.06;;;12.51;100.00
9257;BME280;4665;51.368;6.782;2023-04-29T13:23:53;101673.88;;;12.60;100.00
9257;BME280;4665;51.368;6.782;2023-04-29T13:26:18;101668.81;;;12.57;100.00